createdAt,value
2018-09-03T00:05:26.000Z,40.831
2018-09-03T00:15:26.000Z,40.703
2018-09-03T00:25:26.000Z,40.832
2018-09-03T00:35:26.000Z,40.819
2018-09-03T00:45:26.000Z,40.875
2018-09-03T00:55:26.000Z,41.072
2018-09-03T01:05:26.000Z,41.079
2018-09-03T01:15:26.000Z,41.123
2018-09-03T01:25:26.000Z,41.166
2018-09-03T01:35:26.000Z,41.392
2018-09-03T01:45:26.000Z,41.524
2018-09-03T01:55:26.000Z,41.556
2018-09-03T02:05:26.000Z,41.741
2018-09-03T02:15:26.000Z,41.949
2018-09-03T02:25:26.000Z,41.928
2018-09-03T02:35:26.000Z,42.015
2018-09-03T02:45:26.000Z,42.091
2018-09-03T02:55:26.000Z,42.202
2018-09-03T03:05:26.000Z,42.125
2018-09-03T03:15:26.000Z,42.364
2018-09-03T03:25:27.000Z,42.374
2018-09-03T03:35:26.000Z,42.286
2018-09-03T03:45:30.000Z,42.516
2018-09-03T03:55:26.000Z,42.47
2018-09-03T04:05:27.000Z,42.512
2018-09-03T04:15:27.000Z,42.609
2018-09-03T04:25:27.000Z,42.665
2018-09-03T04:35:27.000Z,42.75
2018-09-03T04:45:27.000Z,42.825
2018-09-03T04:55:27.000Z,42.9
2018-09-03T05:05:27.000Z,42.965
2018-09-03T05:15:27.000Z,43.02
2018-09-03T05:25:27.000Z,43.128
2018-09-03T05:35:27.000Z,43.216
2018-09-03T05:45:27.000Z,43.315
2018-09-03T05:55:27.000Z,44.138
2018-09-03T06:05:27.000Z,44.315
2018-09-03T06:15:27.000Z,44.546
2018-09-03T06:25:27.000Z,44.963
2018-09-03T06:35:27.000Z,45.249
2018-09-03T06:45:27.000Z,45.798
2018-09-03T06:55:27.000Z,45.828
2018-09-03T07:05:27.000Z,46.357
2018-09-03T07:15:27.000Z,46.354
2018-09-03T07:25:27.000Z,46.593
2018-09-03T07:35:27.000Z,47.043
2018-09-03T07:45:28.000Z,46.979
2018-09-03T07:55:27.000Z,47.389
2018-09-03T08:05:27.000Z,47.036
2018-09-03T08:15:27.000Z,47.552
2018-09-03T08:25:27.000Z,48.211
2018-09-03T08:35:27.000Z,48.885
2018-09-03T08:45:27.000Z,48.883
2018-09-03T08:55:27.000Z,49.008
2018-09-03T09:05:27.000Z,48.687
2018-09-03T09:15:27.000Z,49.45
2018-09-03T09:25:27.000Z,49.046
2018-09-03T09:35:27.000Z,48.67
2018-09-03T09:45:27.000Z,48.737
2018-09-03T09:55:27.000Z,48.163
2018-09-03T10:05:27.000Z,48.276
2018-09-03T10:15:27.000Z,47.746
2018-09-03T10:25:27.000Z,47.638
2018-09-03T10:35:27.000Z,46.743
2018-09-03T10:45:27.000Z,47.997
2018-09-03T10:55:27.000Z,48.342
2018-09-03T11:05:27.000Z,48.635
2018-09-03T11:15:27.000Z,48.797
2018-09-03T11:25:27.000Z,48.936
2018-09-03T11:35:27.000Z,49.354
2018-09-03T11:45:27.000Z,49.321
2018-09-03T11:55:27.000Z,49.287
2018-09-03T12:05:28.000Z,49.736
2018-09-03T12:15:27.000Z,49.432
2018-09-03T12:25:28.000Z,49.974
2018-09-03T12:35:28.000Z,50.582
2018-09-03T12:45:28.000Z,50.843
2018-09-03T12:55:28.000Z,51.047
2018-09-03T13:05:28.000Z,51.159
2018-09-03T13:15:28.000Z,51.563
2018-09-03T13:25:28.000Z,51.223
2018-09-03T13:35:28.000Z,51.808
2018-09-03T13:45:28.000Z,52.797
2018-09-03T13:55:28.000Z,52.449
2018-09-03T14:05:28.000Z,52.549
2018-09-03T14:15:28.000Z,51.902
2018-09-03T14:25:28.000Z,52.158
2018-09-03T14:35:28.000Z,51.788
2018-09-03T14:55:28.000Z,51.776
2018-09-03T15:05:28.000Z,51.59
2018-09-03T15:15:28.000Z,51.964
2018-09-03T15:25:28.000Z,52.827
2018-09-03T15:35:28.000Z,51.861
2018-09-03T15:45:28.000Z,51.713
2018-09-03T15:55:28.000Z,51.857
2018-09-03T16:05:28.000Z,52.175
2018-09-03T16:15:28.000Z,51.402
2018-09-03T16:25:28.000Z,51.347
2018-09-03T16:35:28.000Z,51.26
2018-09-03T16:45:28.000Z,51.826
2018-09-03T16:55:28.000Z,51.47
2018-09-03T17:05:29.000Z,51.579
2018-09-03T17:15:28.000Z,51.461
2018-09-03T17:25:28.000Z,51.591
2018-09-03T17:35:28.000Z,51.512
2018-09-03T17:45:28.000Z,51.257
2018-09-03T17:55:28.000Z,51.252
2018-09-03T18:05:28.000Z,51.336
2018-09-03T18:15:28.000Z,51.301
2018-09-03T18:25:28.000Z,51.298
2018-09-03T18:35:28.000Z,51.286
2018-09-03T18:45:28.000Z,51.304
2018-09-03T18:55:28.000Z,51.117
2018-09-03T19:05:28.000Z,51.255
2018-09-03T19:15:28.000Z,51.208
2018-09-03T19:25:28.000Z,51.151
2018-09-03T19:35:28.000Z,51.151
2018-09-03T19:45:28.000Z,51.125
2018-09-03T19:55:28.000Z,51.135
2018-09-03T20:05:28.000Z,51.156
2018-09-03T20:15:28.000Z,51.034
2018-09-03T20:25:28.000Z,51.165
2018-09-03T20:35:28.000Z,51.118
2018-09-03T20:45:29.000Z,51.268
2018-09-03T20:55:29.000Z,51.107
2018-09-03T21:05:29.000Z,51.833
2018-09-03T21:15:30.000Z,51.973
2018-09-03T21:25:29.000Z,51.795
2018-09-03T21:35:29.000Z,51.804
2018-09-03T21:45:29.000Z,52.264
2018-09-03T21:55:29.000Z,52.076
2018-09-03T22:05:29.000Z,52.217
2018-09-03T22:15:29.000Z,52.315
2018-09-03T22:25:29.000Z,52.192
2018-09-03T22:35:29.000Z,52.213
2018-09-03T22:45:29.000Z,52.2
2018-09-03T22:55:30.000Z,52.087
2018-09-03T23:05:29.000Z,52.118
2018-09-03T23:15:29.000Z,52.097
2018-09-03T23:25:29.000Z,52.094
2018-09-03T23:35:29.000Z,52.088
2018-09-03T23:45:29.000Z,52.219
2018-09-03T23:55:29.000Z,52.24
